Startpagina
METAR-TAF:

METAR-TAF

Vliegvelden :

Army Air Corps Middle Wallop

Middle Wallop, Engeland

breedte: 51-09N, lengte: 001-34W, hoogte: 91 m

Actueel weer

Dit bericht is 1 uur en het 15 minuten geleden gemaakt, om 08:50 UTC
Wind 3 kt uit het zuiden
Temperatuur 19°C
Vochtigheid 46%
Druk 1029 hPa
Zicht 10 km of meer

METAR: EGVP 120850Z AUTO 17003KT 9999 NCD 19/07 Q1029 REDZ

Tijdstip: 11:05 (10:05 UTC)


TAF: ontbreekt

Waarnemingen en weersverwachtingen van meer dan 4000 vliegvelden (METAR en TAF).

De beschikbare stations zijn de gele en rode punten op de kaart.

Ga met uw muis naar het station om de naam te zien.

Klik dan om waarnemingen en weersverwachtingen te zien.

kaart wijzigen: klik op de groene knoppen met een zwart kruis om in te zoomen, op de groene knop met een streepje om uit te zoomen of op de groene pijlen voor aangrenzende kaarten.


METAR-TAF: